To NAV CANADA Home Page Login to a new session Search on AWWS site Feedback and Comments Disclaimer Vers la page française équivalente Tips FAQ What's new on the site To the Forecasts and Observations / NOTAM section To "File a Flight Plan" website Publications and other links Update of the User's profile FIC Telephone Numbers My Weather Data Folder Route Weather Data Regional Weather Data Local Weather Data To the Forecasts and Observations / NOTAM section
Request Generated 08/22/2017 at 03:27:39 UTC . Weather information available at that time is displayed.

METAR/TAF

HALIFAX/STANFIELD INTL/NS    (show WxCam)

METAR CYHZ 220300Z 23006KT 15SM SKC 19/15 A3000 RMK SLP159 DENSITY
ALT 1000FT=
METAR CYHZ 220200Z 24008KT 15SM SKC 20/15 A3001 RMK SLP162 DENSITY
ALT 1100FT=
METAR CYHZ 220100Z 25008KT 15SM FEW250 21/15 A3001 RMK CI1 CI TR
SLP165 DENSITY ALT 1200FT=

TAF CYHZ 220238Z 2203/2224 24007KT P6SM SKC
BECMG 2216/2218 20012KT
RMK NXT FCST BY 220600Z=
Your time UTC time
Weather data provided by Environment Canada and NAV CANADA